Terminal Aerodrome Forecast
Issued by NWS Quad Cities IA IL

Home | Current Version | Previous Version | Text Only | Print | Product List | Glossary On
Versions: 1 2 3 4 5 6 7 8 9 10 11 12 13 14 15 16 17 18 19 20 21 22 23 24 25 26 27 28 29 30 31 32 33
611
FTUS43 KDVN 251935 AAA
TAFDBQ
TAF AMD
KDBQ 251935Z 2520/2618 06014G24KT 4SM BR OVC006
      TEMPO 2520/2522 2SM -RA BR
     FM252200 08014G20KT 4SM BR OVC008
     FM260200 06009KT 2SM -DZ BR OVC003
     FM260800 07008KT 1/2SM -DZ FG VV002=

USA.gov is the U.S. government's official web portal to all federal, state and local government web resources and services.